EDT,Max TemperatureF,Mean TemperatureF,Min TemperatureF,Max Dew PointF,MeanDew PointF,Min DewpointF,Max Humidity, Mean Humidity, Min Humidity, Max Sea Level PressureIn, Mean Sea Level PressureIn, Min Sea Level PressureIn, Max VisibilityMiles, Mean VisibilityMiles, Min VisibilityMiles, Max Wind SpeedMPH, Mean Wind SpeedMPH, Max Gust SpeedMPH,PrecipitationIn, CloudCover, Events, WindDirDegrees
2013-3-1,59,54,48,37,35,32,61,52,39,30.01,29.97,29.91,10,10,10,9,6,17,0.00,4,,298
2013-3-2,54,48,41,36,32,27,82,58,37,30.03,29.99,29.93,10,10,10,16,8,26,0.00,1,,284
2013-3-3,45,41,37,32,28,25,76,60,46,30.14,30.05,30.00,10,10,10,12,7,24,0.00,2,,294
2013-3-4,57,46,36,41,31,21,77,56,28,30.23,30.17,30.13,10,10,10,13,6,18,0.00,1,,231
2013-3-5,75,59,43,56,43,32,82,55,21,30.19,30.06,29.89,10,10,10,23,10,31,0.00,3,,218
2013-3-6,64,54,44,59,36,26,90,57,31,30.14,30.00,29.86,10,10,4,15,12,31,0.07,1,Rain,287
2013-3-7,55,46,37,46,38,31,97,72,55,30.25,30.20,30.15,10,10,6,9,5,,0.00,1,,24
2013-3-8,63,53,43,49,45,40,93,75,47,30.25,30.22,30.18,10,9,6,15,5,,0.00,0,,357
2013-3-9,66,56,46,51,46,40,93,70,45,30.30,30.24,30.19,10,9,0,17,7,,0.00,3,Fog,38
2013-3-10,72,64,57,58,55,52,93,75,53,30.23,30.18,30.15,10,10,9,13,9,20,0.00,2,,75
2013-3-11,75,65,57,61,58,54,93,76,52,30.15,30.03,29.92,10,10,10,17,9,25,0.00,5,Rain,147
2013-3-12,69,62,57,66,60,46,100,85,50,30.02,29.91,29.85,10,8,2,21,11,28,0.06,7,Rain,211
2013-3-13,69,58,48,45,37,29,72,47,24,30.19,30.11,30.02,10,10,10,12,6,20,0.00,1,,333
2013-3-14,54,48,42,40,32,28,85,55,41,30.32,30.25,30.17,10,10,10,13,5,23,0.00,0,,11
2013-3-15,66,52,41,45,39,25,89,62,27,30.29,30.22,30.13,10,10,10,15,6,,0.00,0,,210
2013-3-16,80,64,50,48,45,42,75,52,28,30.17,30.09,29.99,10,10,10,14,8,20,0.00,0,,245
2013-3-17,77,62,50,58,49,40,86,61,27,30.13,30.06,30.00,10,10,10,17,7,21,0.00,4,Rain,195
2013-3-18,81,72,62,62,59,56,93,75,45,30.06,29.99,29.88,10,10,8,14,4,,0.00,6,Rain,199
2013-3-19,80,70,61,62,57,55,93,71,47,30.01,29.96,29.89,10,10,10,14,6,18,0.00,5,,272
2013-3-20,64,59,53,56,52,49,90,77,58,30.03,29.95,29.86,10,8,1,21,8,25,0.29,6,Rain-Thunderstorm,3
2013-3-21,66,56,45,50,34,23,93,51,20,29.97,29.91,29.86,10,10,10,8,5,20,0.01,2,,302
2013-3-22,63,56,52,51,39,33,75,53,41,30.09,30.02,29.95,10,10,10,18,7,23,0.00,5,,37
2013-3-23,71,62,55,66,61,52,100,95,75,30.01,29.88,29.81,10,6,1,18,7,23,1.98,7,Rain-Thunderstorm,78
2013-3-24,84,72,62,71,65,60,100,87,49,29.82,29.65,29.53,10,8,2,21,11,30,0.16,6,Rain-Thunderstorm,205
2013-3-25,68,60,51,61,37,24,83,47,23,30.04,29.83,29.62,10,10,10,16,10,31,0.00,1,,285
2013-3-26,55,48,41,32,27,23,60,46,31,30.26,30.13,30.05,10,10,10,13,7,25,0.00,1,,302
2013-3-27,55,46,37,39,33,26,82,61,39,30.32,30.27,30.22,10,10,10,10,5,18,0.00,0,,9
2013-3-28,64,52,43,45,38,29,89,62,29,30.31,30.27,30.23,10,10,10,14,5,,0.00,0,,320
2013-3-29,69,56,45,47,42,33,93,63,28,30.34,30.28,30.23,10,10,6,12,5,,0.00,0,,144
2013-3-30,77,60,46,56,46,36,93,62,23,30.27,30.20,30.13,10,10,9,16,6,23,0.00,1,,203
2013-3-31,81,66,53,55,50,43,80,54,36,30.14,30.06,29.97,10,10,10,15,9,24,0.00,3,,212